sensor_id;sensor_type;location;lat;lon;timestamp;pressure;altitude;pressure_sealevel;temperature;humidity
15487;BME280;7845;53.698;10.078;2022-09-16T00:02:17;100052.41;;;18.11;100.00
15487;BME280;7845;53.698;10.078;2022-09-16T00:04:42;100057.94;;;18.23;100.00
15487;BME280;7845;53.698;10.078;2022-09-16T00:07:07;100058.97;;;18.21;100.00
15487;BME280;7845;53.698;10.078;2022-09-16T00:09:33;100066.25;;;18.16;100.00
15487;BME280;7845;53.698;10.078;2022-09-16T00:11:58;100068.66;;;18.20;100.00
15487;BME280;7845;53.698;10.078;2022-09-16T00:14:24;100062.84;;;18.14;100.00
15487;BME280;7845;53.698;10.078;2022-09-16T00:16:49;100070.69;;;18.15;100.00
15487;BME280;7845;53.698;10.078;2022-09-16T00:19:14;100063.28;;;18.22;100.00
15487;BME280;7845;53.698;10.078;2022-09-16T00:21:40;100064.78;;;18.28;100.00
15487;BME280;7845;53.698;10.078;2022-09-16T00:24:05;100065.47;;;18.31;100.00
15487;BME280;7845;53.698;10.078;2022-09-16T00:26:30;100064.63;;;18.31;100.00
15487;BME280;7845;53.698;10.078;2022-09-16T00:28:56;100062.75;;;18.33;100.00
15487;BME280;7845;53.698;10.078;2022-09-16T00:31:22;100068.59;;;18.39;100.00
15487;BME280;7845;53.698;10.078;2022-09-16T00:33:47;100069.47;;;18.40;100.00
15487;BME280;7845;53.698;10.078;2022-09-16T00:36:15;100066.97;;;18.37;100.00
15487;BME280;7845;53.698;10.078;2022-09-16T00:38:41;100061.97;;;18.48;100.00
15487;BME280;7845;53.698;10.078;2022-09-16T00:41:08;100072.63;;;18.46;100.00
15487;BME280;7845;53.698;10.078;2022-09-16T00:44:47;100079.50;;;18.50;100.00
15487;BME280;7845;53.698;10.078;2022-09-16T00:46:52;100087.50;;;18.49;100.00
15487;BME280;7845;53.698;10.078;2022-09-16T00:49:29;100084.38;;;18.41;100.00
15487;BME280;7845;53.698;10.078;2022-09-16T00:52:01;100090.22;;;18.30;100.00
15487;BME280;7845;53.698;10.078;2022-09-16T00:54:28;100087.72;;;18.61;100.00
15487;BME280;7845;53.698;10.078;2022-09-16T00:56:56;100078.69;;;18.31;100.00
15487;BME280;7845;53.698;10.078;2022-09-16T00:59:28;100084.78;;;18.50;100.00
15487;BME280;7845;53.698;10.078;2022-09-16T01:01:55;100082.28;;;18.30;100.00
15487;BME280;7845;53.698;10.078;2022-09-16T01:04:29;100088.13;;;18.37;100.00
15487;BME280;7845;53.698;10.078;2022-09-16T01:06:55;100098.19;;;18.29;100.00
15487;BME280;7845;53.698;10.078;2022-09-16T01:09:23;100085.63;;;18.34;100.00
15487;BME280;7845;53.698;10.078;2022-09-16T01:11:50;100076.75;;;18.17;100.00
15487;BME280;7845;53.698;10.078;2022-09-16T01:14:17;100073.94;;;18.38;100.00
15487;BME280;7845;53.698;10.078;2022-09-16T01:17:15;100094.69;;;18.28;100.00
15487;BME280;7845;53.698;10.078;2022-09-16T01:22:29;100096.88;;;18.20;100.00
15487;BME280;7845;53.698;10.078;2022-09-16T01:28:17;100082.34;;;18.29;100.00
15487;BME280;7845;53.698;10.078;2022-09-16T01:44:24;100065.81;;;18.59;100.00
15487;BME280;7845;53.698;10.078;2022-09-16T01:47:19;100063.94;;;18.61;100.00
15487;BME280;7845;53.698;10.078;2022-09-16T01:50:09;100054.81;;;18.67;100.00
15487;BME280;7845;53.698;10.078;2022-09-16T01:52:56;100053.63;;;18.57;100.00
15487;BME280;7845;53.698;10.078;2022-09-16T01:55:37;100052.06;;;18.53;100.00
15487;BME280;7845;53.698;10.078;2022-09-16T01:58:11;100057.13;;;18.57;100.00
15487;BME280;7845;53.698;10.078;2022-09-16T02:00:43;100060.44;;;18.61;100.00
15487;BME280;7845;53.698;10.078;2022-09-16T02:03:13;100059.06;;;18.54;100.00
15487;BME280;7845;53.698;10.078;2022-09-16T02:05:54;100053.91;;;18.68;100.00
15487;BME280;7845;53.698;10.078;2022-09-16T02:08:26;100048.38;;;18.72;100.00
15487;BME280;7845;53.698;10.078;2022-09-16T02:11:01;100036.00;;;18.73;100.00
15487;BME280;7845;53.698;10.078;2022-09-16T02:13:39;100048.00;;;18.63;100.00
15487;BME280;7845;53.698;10.078;2022-09-16T02:16:23;100044.22;;;18.51;100.00
15487;BME280;7845;53.698;10.078;2022-09-16T02:18:54;100047.22;;;18.27;100.00
15487;BME280;7845;53.698;10.078;2022-09-16T02:21:23;100057.53;;;18.31;100.00
15487;BME280;7845;53.698;10.078;2022-09-16T02:23:54;100050.00;;;18.58;100.00
15487;BME280;7845;53.698;10.078;2022-09-16T02:26:26;100072.56;;;18.48;100.00
15487;BME280;7845;53.698;10.078;2022-09-16T02:28:57;100072.78;;;18.43;100.00
15487;BME280;7845;53.698;10.078;2022-09-16T02:31:32;100054.13;;;18.29;100.00
15487;BME280;7845;53.698;10.078;2022-09-16T02:34:11;100055.69;;;18.33;100.00
15487;BME280;7845;53.698;10.078;2022-09-16T02:36:40;100037.41;;;18.46;100.00
15487;BME280;7845;53.698;10.078;2022-09-16T02:39:16;100030.19;;;18.49;100.00
15487;BME280;7845;53.698;10.078;2022-09-16T02:41:42;100032.63;;;18.54;100.00
15487;BME280;7845;53.698;10.078;2022-09-16T02:44:09;100032.06;;;18.47;100.00
15487;BME280;7845;53.698;10.078;2022-09-16T02:46:54;100030.75;;;18.56;100.00
15487;BME280;7845;53.698;10.078;2022-09-16T02:49:50;100029.88;;;18.55;100.00
15487;BME280;7845;53.698;10.078;2022-09-16T02:52:43;100035.25;;;18.37;100.00
15487;BME280;7845;53.698;10.078;2022-09-16T02:58:06;100031.59;;;18.39;100.00
15487;BME280;7845;53.698;10.078;2022-09-16T03:00:37;100034.41;;;18.53;100.00
15487;BME280;7845;53.698;10.078;2022-09-16T03:03:06;100030.25;;;18.65;100.00
15487;BME280;7845;53.698;10.078;2022-09-16T03:05:32;100035.84;;;18.76;100.00
15487;BME280;7845;53.698;10.078;2022-09-16T03:07:58;100043.94;;;18.73;100.00
15487;BME280;7845;53.698;10.078;2022-09-16T03:10:38;100058.31;;;18.67;100.00
15487;BME280;7845;53.698;10.078;2022-09-16T03:13:29;100052.75;;;18.56;100.00
15487;BME280;7845;53.698;10.078;2022-09-16T03:16:34;100049.25;;;18.56;100.00
15487;BME280;7845;53.698;10.078;2022-09-16T03:22:21;100021.47;;;18.47;100.00
15487;BME280;7845;53.698;10.078;2022-09-16T03:28:07;100012.94;;;18.59;100.00
15487;BME280;7845;53.698;10.078;2022-09-16T03:30:42;100011.75;;;18.65;100.00
15487;BME280;7845;53.698;10.078;2022-09-16T03:33:19;100012.00;;;18.43;100.00
15487;BME280;7845;53.698;10.078;2022-09-16T03:35:56;100007.28;;;18.50;100.00
15487;BME280;7845;53.698;10.078;2022-09-16T03:38:22;100002.13;;;18.47;100.00
15487;BME280;7845;53.698;10.078;2022-09-16T03:40:49;100001.06;;;18.51;100.00
15487;BME280;7845;53.698;10.078;2022-09-16T03:43:15;100007.66;;;18.42;100.00
15487;BME280;7845;53.698;10.078;2022-09-16T03:45:41;100003.88;;;18.31;100.00
15487;BME280;7845;53.698;10.078;2022-09-16T03:48:11;100008.75;;;18.21;100.00
15487;BME280;7845;53.698;10.078;2022-09-16T03:50:37;100009.06;;;18.32;100.00
15487;BME280;7845;53.698;10.078;2022-09-16T03:53:03;100010.69;;;18.35;100.00
15487;BME280;7845;53.698;10.078;2022-09-16T03:55:29;100026.41;;;18.20;100.00
15487;BME280;7845;53.698;10.078;2022-09-16T03:57:54;100023.16;;;18.15;100.00
15487;BME280;7845;53.698;10.078;2022-09-16T04:00:20;100022.28;;;18.32;100.00
15487;BME280;7845;53.698;10.078;2022-09-16T04:02:46;100023.84;;;18.36;100.00
15487;BME280;7845;53.698;10.078;2022-09-16T04:05:11;100022.97;;;18.36;100.00
15487;BME280;7845;53.698;10.078;2022-09-16T04:07:37;100021.03;;;18.39;100.00
15487;BME280;7845;53.698;10.078;2022-09-16T04:10:04;100022.34;;;18.48;100.00
15487;BME280;7845;53.698;10.078;2022-09-16T04:12:38;100011.06;;;18.44;100.00
15487;BME280;7845;53.698;10.078;2022-09-16T04:15:13;100016.19;;;18.47;100.00
15487;BME280;7845;53.698;10.078;2022-09-16T04:17:39;100006.03;;;18.40;100.00
15487;BME280;7845;53.698;10.078;2022-09-16T04:20:04;99998.16;;;18.38;100.00
15487;BME280;7845;53.698;10.078;2022-09-16T04:22:34;100006.03;;;18.40;100.00
15487;BME280;7845;53.698;10.078;2022-09-16T04:25:00;100001.75;;;18.37;100.00
15487;BME280;7845;53.698;10.078;2022-09-16T04:27:26;100003.00;;;18.30;100.00
15487;BME280;7845;53.698;10.078;2022-09-16T04:29:51;99998.81;;;18.26;100.00
15487;BME280;7845;53.698;10.078;2022-09-16T04:32:17;99996.78;;;18.31;100.00
15487;BME280;7845;53.698;10.078;2022-09-16T04:34:42;99999.25;;;18.34;100.00
15487;BME280;7845;53.698;10.078;2022-09-16T04:37:10;99998.19;;;18.21;100.00
15487;BME280;7845;53.698;10.078;2022-09-16T04:39:36;100010.75;;;18.16;100.00
15487;BME280;7845;53.698;10.078;2022-09-16T04:42:01;100005.19;;;18.05;100.00
15487;BME280;7845;53.698;10.078;2022-09-16T04:44:29;100002.84;;;17.99;100.00
15487;BME280;7845;53.698;10.078;2022-09-16T04:46:58;100008.06;;;18.00;100.00
15487;BME280;7845;53.698;10.078;2022-09-16T04:49:23;100002.94;;;17.97;100.00
15487;BME280;7845;53.698;10.078;2022-09-16T04:51:52;99992.91;;;17.87;100.00
15487;BME280;7845;53.698;10.078;2022-09-16T04:54:17;99987.47;;;17.90;100.00
15487;BME280;7845;53.698;10.078;2022-09-16T04:56:45;100000.44;;;17.94;100.00
15487;BME280;7845;53.698;10.078;2022-09-16T04:59:11;99997.09;;;17.91;100.00
15487;BME280;7845;53.698;10.078;2022-09-16T05:01:37;99994.78;;;18.02;100.00
15487;BME280;7845;53.698;10.078;2022-09-16T05:04:05;100006.75;;;18.09;100.00
15487;BME280;7845;53.698;10.078;2022-09-16T05:06:36;99998.72;;;18.10;100.00
15487;BME280;7845;53.698;10.078;2022-09-16T05:09:04;99990.34;;;18.02;100.00
15487;BME280;7845;53.698;10.078;2022-09-16T05:11:32;99990.19;;;17.88;100.00
15487;BME280;7845;53.698;10.078;2022-09-16T05:14:30;99990.91;;;17.92;100.00
15487;BME280;7845;53.698;10.078;2022-09-16T05:16:55;99977.00;;;18.05;100.00
15487;BME280;7845;53.698;10.078;2022-09-16T05:19:21;99976.50;;;18.14;100.00
15487;BME280;7845;53.698;10.078;2022-09-16T05:21:46;99986.00;;;18.18;100.00
15487;BME280;7845;53.698;10.078;2022-09-16T05:24:12;99977.22;;;18.18;100.00
15487;BME280;7845;53.698;10.078;2022-09-16T05:26:40;99976.25;;;18.19;100.00
15487;BME280;7845;53.698;10.078;2022-09-16T05:29:09;99972.41;;;18.09;100.00
15487;BME280;7845;53.698;10.078;2022-09-16T05:31:37;99975.34;;;18.20;100.00
15487;BME280;7845;53.698;10.078;2022-09-16T05:34:06;99974.50;;;18.02;100.00
15487;BME280;7845;53.698;10.078;2022-09-16T05:36:33;99967.59;;;18.00;100.00
15487;BME280;7845;53.698;10.078;2022-09-16T05:39:00;99969.63;;;17.95;100.00
15487;BME280;7845;53.698;10.078;2022-09-16T05:41:26;99969.81;;;18.07;100.00
15487;BME280;7845;53.698;10.078;2022-09-16T05:43:51;99968.75;;;17.94;100.00
15487;BME280;7845;53.698;10.078;2022-09-16T05:46:19;99973.63;;;18.02;100.00
15487;BME280;7845;53.698;10.078;2022-09-16T05:48:45;99978.44;;;18.11;100.00
15487;BME280;7845;53.698;10.078;2022-09-16T05:51:13;99981.97;;;18.11;100.00
15487;BME280;7845;53.698;10.078;2022-09-16T05:53:39;99982.72;;;18.31;100.00
15487;BME280;7845;53.698;10.078;2022-09-16T05:56:06;99979.06;;;18.33;100.00
15487;BME280;7845;53.698;10.078;2022-09-16T05:58:35;99980.28;;;18.43;100.00
15487;BME280;7845;53.698;10.078;2022-09-16T06:01:07;99977.13;;;18.37;100.00
15487;BME280;7845;53.698;10.078;2022-09-16T06:03:40;99983.34;;;18.36;100.00
15487;BME280;7845;53.698;10.078;2022-09-16T06:06:17;99979.59;;;18.40;100.00
15487;BME280;7845;53.698;10.078;2022-09-16T06:09:09;99971.53;;;18.43;100.00
15487;BME280;7845;53.698;10.078;2022-09-16T06:11:38;99966.41;;;18.40;100.00
15487;BME280;7845;53.698;10.078;2022-09-16T06:14:03;99965.44;;;18.41;100.00
15487;BME280;7845;53.698;10.078;2022-09-16T06:16:30;99968.38;;;18.52;100.00
15487;BME280;7845;53.698;10.078;2022-09-16T06:18:58;99968.03;;;18.25;100.00
15487;BME280;7845;53.698;10.078;2022-09-16T06:21:24;99969.59;;;18.12;100.00
15487;BME280;7845;53.698;10.078;2022-09-16T06:23:49;99976.66;;;18.29;100.00
15487;BME280;7845;53.698;10.078;2022-09-16T06:26:18;99967.53;;;18.34;100.00
15487;BME280;7845;53.698;10.078;2022-09-16T06:28:45;99962.03;;;18.39;100.00
15487;BME280;7845;53.698;10.078;2022-09-16T06:31:13;99960.09;;;18.25;100.00
15487;BME280;7845;53.698;10.078;2022-09-16T06:33:39;99953.03;;;18.25;100.00
15487;BME280;7845;53.698;10.078;2022-09-16T06:36:13;99958.63;;;18.37;100.00
15487;BME280;7845;53.698;10.078;2022-09-16T06:38:39;99960.41;;;18.36;100.00
15487;BME280;7845;53.698;10.078;2022-09-16T06:41:08;99959.41;;;18.39;100.00
15487;BME280;7845;53.698;10.078;2022-09-16T06:43:34;99969.53;;;18.46;100.00
15487;BME280;7845;53.698;10.078;2022-09-16T06:46:08;99964.31;;;18.29;100.00
15487;BME280;7845;53.698;10.078;2022-09-16T06:48:38;99956.44;;;18.45;100.00
15487;BME280;7845;53.698;10.078;2022-09-16T06:51:06;99966.13;;;18.44;100.00
15487;BME280;7845;53.698;10.078;2022-09-16T06:53:32;99960.09;;;18.42;100.00
15487;BME280;7845;53.698;10.078;2022-09-16T06:56:02;99959.22;;;18.42;100.00
15487;BME280;7845;53.698;10.078;2022-09-16T06:58:31;99952.06;;;18.44;100.00
15487;BME280;7845;53.698;10.078;2022-09-16T07:00:56;99966.22;;;18.43;100.00
15487;BME280;7845;53.698;10.078;2022-09-16T07:03:21;99948.66;;;18.42;100.00
15487;BME280;7845;53.698;10.078;2022-09-16T07:05:57;99957.06;;;18.33;100.00
15487;BME280;7845;53.698;10.078;2022-09-16T07:08:24;99958.22;;;18.44;100.00
15487;BME280;7845;53.698;10.078;2022-09-16T07:11:02;99963.81;;;18.38;100.00
15487;BME280;7845;53.698;10.078;2022-09-16T07:13:27;99958.38;;;18.41;100.00
15487;BME280;7845;53.698;10.078;2022-09-16T07:15:53;99958.78;;;18.51;100.00
15487;BME280;7845;53.698;10.078;2022-09-16T07:18:19;99950.53;;;18.57;100.00
15487;BME280;7845;53.698;10.078;2022-09-16T07:20:44;99950.13;;;18.47;100.00
15487;BME280;7845;53.698;10.078;2022-09-16T07:23:10;99952.69;;;18.82;100.00
15487;BME280;7845;53.698;10.078;2022-09-16T07:25:36;99963.72;;;19.05;100.00
15487;BME280;7845;53.698;10.078;2022-09-16T07:28:04;99959.25;;;19.21;100.00
15487;BME280;7845;53.698;10.078;2022-09-16T07:30:29;99945.22;;;19.05;100.00
15487;BME280;7845;53.698;10.078;2022-09-16T07:32:55;99948.78;;;19.04;100.00
15487;BME280;7845;53.698;10.078;2022-09-16T07:35:21;99947.94;;;19.19;100.00
15487;BME280;7845;53.698;10.078;2022-09-16T07:37:46;99942.38;;;19.40;100.00
15487;BME280;7845;53.698;10.078;2022-09-16T07:40:12;99948.44;;;19.42;100.00
15487;BME280;7845;53.698;10.078;2022-09-16T07:42:38;99946.09;;;19.35;100.00
15487;BME280;7845;53.698;10.078;2022-09-16T07:45:09;99948.25;;;19.29;100.00
15487;BME280;7845;53.698;10.078;2022-09-16T07:47:37;99949.47;;;19.39;100.00
15487;BME280;7845;53.698;10.078;2022-09-16T07:50:03;99945.19;;;19.21;100.00
15487;BME280;7845;53.698;10.078;2022-09-16T07:52:29;99936.03;;;19.26;100.00
15487;BME280;7845;53.698;10.078;2022-09-16T07:54:57;99942.88;;;19.46;100.00
15487;BME280;7845;53.698;10.078;2022-09-16T07:57:23;99941.78;;;19.34;100.00
15487;BME280;7845;53.698;10.078;2022-09-16T07:59:49;99952.25;;;19.20;100.00
15487;BME280;7845;53.698;10.078;2022-09-16T08:02:15;99959.38;;;19.20;100.00
15487;BME280;7845;53.698;10.078;2022-09-16T08:04:43;99951.09;;;19.26;100.00
15487;BME280;7845;53.698;10.078;2022-09-16T08:07:09;99948.09;;;19.16;100.00
15487;BME280;7845;53.698;10.078;2022-09-16T08:09:34;99939.72;;;18.93;100.00
15487;BME280;7845;53.698;10.078;2022-09-16T08:12:03;99947.50;;;19.11;100.00
15487;BME280;7845;53.698;10.078;2022-09-16T08:14:29;99939.00;;;19.36;100.00
15487;BME280;7845;53.698;10.078;2022-09-16T08:16:58;99942.38;;;19.40;100.00
15487;BME280;7845;53.698;10.078;2022-09-16T08:19:23;99941.47;;;19.70;100.00
15487;BME280;7845;53.698;10.078;2022-09-16T08:21:50;99939.13;;;20.10;100.00
15487;BME280;7845;53.698;10.078;2022-09-16T08:24:15;99933.88;;;20.08;100.00
15487;BME280;7845;53.698;10.078;2022-09-16T08:26:40;99947.34;;;20.19;100.00
15487;BME280;7845;53.698;10.078;2022-09-16T08:29:06;99950.16;;;20.02;100.00
15487;BME280;7845;53.698;10.078;2022-09-16T08:31:31;99949.66;;;20.25;100.00
15487;BME280;7845;53.698;10.078;2022-09-16T08:33:57;99952.06;;;20.14;100.00
15487;BME280;7845;53.698;10.078;2022-09-16T08:36:26;99960.91;;;19.85;100.00
15487;BME280;7845;53.698;10.078;2022-09-16T08:38:54;99960.22;;;19.52;100.00
15487;BME280;7845;53.698;10.078;2022-09-16T08:46:56;99955.75;;;19.21;100.00
15487;BME280;7845;53.698;10.078;2022-09-16T08:49:45;99953.00;;;19.69;100.00
15487;BME280;7845;53.698;10.078;2022-09-16T08:52:37;99968.09;;;19.83;100.00
15487;BME280;7845;53.698;10.078;2022-09-16T08:55:26;99978.88;;;18.86;100.00
15487;BME280;7845;53.698;10.078;2022-09-16T09:00:26;99973.28;;;18.59;100.00
15487;BME280;7845;53.698;10.078;2022-09-16T09:03:06;99965.25;;;19.09;100.00
15487;BME280;7845;53.698;10.078;2022-09-16T09:05:51;99960.47;;;19.16;100.00
15487;BME280;7845;53.698;10.078;2022-09-16T09:14:02;99952.69;;;19.28;100.00
15487;BME280;7845;53.698;10.078;2022-09-16T09:16:36;99956.84;;;19.32;100.00
15487;BME280;7845;53.698;10.078;2022-09-16T09:19:30;99961.81;;;19.39;100.00
15487;BME280;7845;53.698;10.078;2022-09-16T09:22:21;99947.28;;;19.77;100.00
15487;BME280;7845;53.698;10.078;2022-09-16T09:24:55;99942.69;;;19.95;100.00
15487;BME280;7845;53.698;10.078;2022-09-16T09:30:09;99944.66;;;19.91;100.00
15487;BME280;7845;53.698;10.078;2022-09-16T09:35:21;99931.91;;;19.98;100.00
15487;BME280;7845;53.698;10.078;2022-09-16T09:38:18;99931.16;;;20.10;100.00
15487;BME280;7845;53.698;10.078;2022-09-16T09:40:55;99902.16;;;20.36;100.00
15487;BME280;7845;53.698;10.078;2022-09-16T09:43:37;99907.09;;;20.42;100.00
15487;BME280;7845;53.698;10.078;2022-09-16T09:46:11;99894.84;;;20.40;100.00
15487;BME280;7845;53.698;10.078;2022-09-16T09:48:47;99888.31;;;20.60;100.00
15487;BME280;7845;53.698;10.078;2022-09-16T09:51:30;99895.03;;;20.65;100.00
15487;BME280;7845;53.698;10.078;2022-09-16T09:54:11;99888.44;;;20.99;100.00
15487;BME280;7845;53.698;10.078;2022-09-16T09:56:44;99900.09;;;21.11;100.00
15487;BME280;7845;53.698;10.078;2022-09-16T09:59:32;99874.94;;;21.16;95.07
15487;BME280;7845;53.698;10.078;2022-09-16T10:02:01;99879.50;;;21.00;93.21
15487;BME280;7845;53.698;10.078;2022-09-16T10:04:37;99873.94;;;21.31;91.81
15487;BME280;7845;53.698;10.078;2022-09-16T10:07:03;99877.25;;;21.47;92.98
15487;BME280;7845;53.698;10.078;2022-09-16T10:09:36;99878.09;;;21.35;91.09
15487;BME280;7845;53.698;10.078;2022-09-16T10:12:08;99870.25;;;21.46;90.00
15487;BME280;7845;53.698;10.078;2022-09-16T10:14:40;99881.25;;;20.87;91.56
15487;BME280;7845;53.698;10.078;2022-09-16T10:17:17;99868.66;;;20.90;89.17
15487;BME280;7845;53.698;10.078;2022-09-16T10:20:03;99871.97;;;20.80;83.87
15487;BME280;7845;53.698;10.078;2022-09-16T10:22:34;99879.34;;;20.48;83.96
15487;BME280;7845;53.698;10.078;2022-09-16T10:25:22;99869.44;;;20.64;84.94
15487;BME280;7845;53.698;10.078;2022-09-16T10:28:25;99885.34;;;20.78;86.72
15487;BME280;7845;53.698;10.078;2022-09-16T10:30:55;99881.75;;;21.06;88.37
15487;BME280;7845;53.698;10.078;2022-09-16T10:33:39;99873.19;;;20.88;88.17
15487;BME280;7845;53.698;10.078;2022-09-16T10:36:17;99874.00;;;21.17;88.93
15487;BME280;7845;53.698;10.078;2022-09-16T10:38:49;99868.31;;;21.09;86.02
15487;BME280;7845;53.698;10.078;2022-09-16T10:41:28;99871.81;;;21.10;88.86
15487;BME280;7845;53.698;10.078;2022-09-16T10:44:11;99859.91;;;21.42;86.27
15487;BME280;7845;53.698;10.078;2022-09-16T10:46:57;99846.78;;;21.14;83.54
15487;BME280;7845;53.698;10.078;2022-09-16T10:52:11;99848.72;;;21.64;87.74
15487;BME280;7845;53.698;10.078;2022-09-16T10:54:38;99845.16;;;22.02;84.75
15487;BME280;7845;53.698;10.078;2022-09-16T10:57:22;99838.13;;;22.01;82.48
15487;BME280;7845;53.698;10.078;2022-09-16T11:03:05;99844.06;;;21.80;79.64
15487;BME280;7845;53.698;10.078;2022-09-16T11:08:17;99877.09;;;20.83;89.96
15487;BME280;7845;53.698;10.078;2022-09-16T11:11:12;99872.38;;;19.89;96.89
15487;BME280;7845;53.698;10.078;2022-09-16T11:21:47;99855.94;;;20.26;100.00
15487;BME280;7845;53.698;10.078;2022-09-16T11:27:13;99852.31;;;20.13;100.00
15487;BME280;7845;53.698;10.078;2022-09-16T11:29:56;99844.28;;;20.43;100.00
15487;BME280;7845;53.698;10.078;2022-09-16T11:37:50;99853.91;;;20.02;100.00
15487;BME280;7845;53.698;10.078;2022-09-16T11:40:45;99865.38;;;20.59;100.00
15487;BME280;7845;53.698;10.078;2022-09-16T11:45:56;99847.66;;;21.00;100.00
15487;BME280;7845;53.698;10.078;2022-09-16T11:48:40;99838.75;;;21.01;100.00
15487;BME280;7845;53.698;10.078;2022-09-16T11:54:48;99836.72;;;21.58;100.00
15487;BME280;7845;53.698;10.078;2022-09-16T11:57:24;99828.94;;;21.55;99.78
15487;BME280;7845;53.698;10.078;2022-09-16T11:59:58;99816.41;;;21.57;99.01
15487;BME280;7845;53.698;10.078;2022-09-16T12:02:30;99818.75;;;21.62;91.86
15487;BME280;7845;53.698;10.078;2022-09-16T12:07:51;99806.88;;;21.92;96.98
15487;BME280;7845;53.698;10.078;2022-09-16T12:10:23;99796.38;;;22.03;92.24
15487;BME280;7845;53.698;10.078;2022-09-16T12:13:17;99802.81;;;21.49;90.07
15487;BME280;7845;53.698;10.078;2022-09-16T12:15:54;99821.72;;;21.70;90.39
15487;BME280;7845;53.698;10.078;2022-09-16T12:18:35;99847.59;;;20.61;97.68
15487;BME280;7845;53.698;10.078;2022-09-16T12:21:23;99861.03;;;20.58;100.00
15487;BME280;7845;53.698;10.078;2022-09-16T12:26:47;99844.84;;;20.20;100.00
15487;BME280;7845;53.698;10.078;2022-09-16T12:29:41;99850.94;;;20.36;100.00
15487;BME280;7845;53.698;10.078;2022-09-16T12:33:05;99832.44;;;20.20;100.00
15487;BME280;7845;53.698;10.078;2022-09-16T12:35:27;99815.22;;;20.41;100.00
15487;BME280;7845;53.698;10.078;2022-09-16T12:37:55;99814.00;;;20.74;100.00
15487;BME280;7845;53.698;10.078;2022-09-16T12:40:24;99814.31;;;20.69;100.00
15487;BME280;7845;53.698;10.078;2022-09-16T12:43:20;99800.53;;;21.04;100.00
15487;BME280;7845;53.698;10.078;2022-09-16T12:54:54;99783.69;;;21.44;98.18
15487;BME280;7845;53.698;10.078;2022-09-16T13:00:42;99785.00;;;21.24;98.76
15487;BME280;7845;53.698;10.078;2022-09-16T13:03:21;99811.41;;;20.86;100.00
15487;BME280;7845;53.698;10.078;2022-09-16T13:09:23;99804.31;;;20.87;100.00
15487;BME280;7845;53.698;10.078;2022-09-16T13:12:21;99811.09;;;20.91;100.00
15487;BME280;7845;53.698;10.078;2022-09-16T13:14:53;99799.47;;;20.53;100.00
15487;BME280;7845;53.698;10.078;2022-09-16T13:17:45;99796.19;;;20.76;100.00
15487;BME280;7845;53.698;10.078;2022-09-16T13:20:31;99804.53;;;20.70;100.00
15487;BME280;7845;53.698;10.078;2022-09-16T13:23:26;99786.66;;;20.32;100.00
15487;BME280;7845;53.698;10.078;2022-09-16T13:26:01;99782.88;;;19.94;100.00
15487;BME280;7845;53.698;10.078;2022-09-16T13:28:38;99784.75;;;20.06;100.00
15487;BME280;7845;53.698;10.078;2022-09-16T13:33:36;99788.06;;;20.10;100.00
15487;BME280;7845;53.698;10.078;2022-09-16T13:36:12;99775.50;;;19.85;100.00
15487;BME280;7845;53.698;10.078;2022-09-16T13:39:03;99782.09;;;19.64;100.00
15487;BME280;7845;53.698;10.078;2022-09-16T13:41:40;99781.16;;;19.93;100.00
15487;BME280;7845;53.698;10.078;2022-09-16T13:49:43;99785.59;;;19.78;100.00
15487;BME280;7845;53.698;10.078;2022-09-16T13:52:12;99767.63;;;19.69;100.00
15487;BME280;7845;53.698;10.078;2022-09-16T13:54:47;99767.44;;;19.58;100.00
15487;BME280;7845;53.698;10.078;2022-09-16T13:57:26;99757.34;;;19.65;100.00
15487;BME280;7845;53.698;10.078;2022-09-16T14:09:27;99740.97;;;19.72;100.00
15487;BME280;7845;53.698;10.078;2022-09-16T14:14:38;99730.19;;;19.75;100.00
15487;BME280;7845;53.698;10.078;2022-09-16T14:17:13;99725.28;;;19.55;100.00
15487;BME280;7845;53.698;10.078;2022-09-16T14:19:41;99732.16;;;19.58;100.00
15487;BME280;7845;53.698;10.078;2022-09-16T14:22:17;99735.06;;;19.39;100.00
15487;BME280;7845;53.698;10.078;2022-09-16T14:24:46;99719.81;;;19.28;100.00
15487;BME280;7845;53.698;10.078;2022-09-16T14:27:19;99716.31;;;19.14;100.00
15487;BME280;7845;53.698;10.078;2022-09-16T14:29:59;99705.81;;;19.26;100.00
15487;BME280;7845;53.698;10.078;2022-09-16T14:32:35;99702.91;;;19.31;100.00
15487;BME280;7845;53.698;10.078;2022-09-16T14:35:07;99687.97;;;19.30;100.00
15487;BME280;7845;53.698;10.078;2022-09-16T14:37:34;99687.19;;;19.14;100.00
15487;BME280;7845;53.698;10.078;2022-09-16T14:40:10;99656.69;;;19.22;100.00
15487;BME280;7845;53.698;10.078;2022-09-16T14:42:41;99673.88;;;19.15;100.00
15487;BME280;7845;53.698;10.078;2022-09-16T14:45:13;99667.63;;;19.16;100.00
15487;BME280;7845;53.698;10.078;2022-09-16T14:47:41;99672.94;;;19.30;100.00
15487;BME280;7845;53.698;10.078;2022-09-16T14:50:19;99663.84;;;18.62;100.00
15487;BME280;7845;53.698;10.078;2022-09-16T14:52:54;99660.59;;;18.87;100.00
15487;BME280;7845;53.698;10.078;2022-09-16T14:55:23;99636.91;;;19.00;100.00
15487;BME280;7845;53.698;10.078;2022-09-16T14:57:48;99630.31;;;19.21;100.00
15487;BME280;7845;53.698;10.078;2022-09-16T15:00:15;99625.78;;;19.23;100.00
15487;BME280;7845;53.698;10.078;2022-09-16T15:05:23;99603.25;;;18.88;100.00
15487;BME280;7845;53.698;10.078;2022-09-16T15:07:51;99605.34;;;18.97;100.00
15487;BME280;7845;53.698;10.078;2022-09-16T15:10:22;99594.50;;;19.01;100.00
15487;BME280;7845;53.698;10.078;2022-09-16T15:12:52;99602.63;;;19.12;100.00
15487;BME280;7845;53.698;10.078;2022-09-16T15:15:20;99606.31;;;19.10;100.00
15487;BME280;7845;53.698;10.078;2022-09-16T15:17:59;99606.31;;;18.96;100.00
15487;BME280;7845;53.698;10.078;2022-09-16T15:20:29;99603.94;;;18.91;100.00